createdAt,value
2023-01-19T00:02:17.505Z,98952.91
2023-01-19T00:12:46.294Z,98965.31
2023-01-19T00:23:08.568Z,98994.59
2023-01-19T00:33:29.747Z,98994.47
2023-01-19T00:43:50.821Z,98991.09
2023-01-19T00:54:12.364Z,98987.91
2023-01-19T01:04:33.932Z,98981.91
2023-01-19T01:14:55.492Z,98979.25
2023-01-19T01:25:22.463Z,99002.88
2023-01-19T01:35:43.756Z,99024.97
2023-01-19T01:46:05.390Z,99032.25
2023-01-19T01:56:35.300Z,99039.72
2023-01-19T02:07:15.129Z,99066.03
2023-01-19T02:17:36.305Z,99044.16
2023-01-19T02:27:57.629Z,99040.94
2023-01-19T02:38:20.920Z,99044.09
2023-01-19T02:48:42.871Z,99013.47
2023-01-19T02:59:48.585Z,99020.94
2023-01-19T03:10:31.261Z,99039.97
2023-01-19T03:20:56.213Z,99041.66
2023-01-19T03:31:26.373Z,99068.72
2023-01-19T03:41:50.454Z,99065.59
2023-01-19T03:52:12.897Z,99055.41
2023-01-19T04:02:35.178Z,99050.00
2023-01-19T04:13:01.848Z,99072.19
2023-01-19T04:23:24.049Z,99087.56
2023-01-19T04:33:45.602Z,99099.66
2023-01-19T04:44:07.100Z,99074.13
2023-01-19T04:54:28.621Z,99091.28
2023-01-19T05:04:50.191Z,99081.34
2023-01-19T05:15:11.915Z,99090.59
2023-01-19T05:25:33.062Z,99097.78
2023-01-19T05:35:55.241Z,99101.47
2023-01-19T05:46:25.972Z,99114.03
2023-01-19T05:56:47.410Z,99094.16
2023-01-19T06:07:08.800Z,99111.94
2023-01-19T06:17:32.932Z,99040.06
2023-01-19T06:27:54.270Z,98986.19
2023-01-19T06:38:18.529Z,98960.00
2023-01-19T06:48:40.171Z,98938.88
2023-01-19T06:59:01.123Z,98934.19
2023-01-19T07:09:22.738Z,98951.19
2023-01-19T07:19:43.702Z,98968.16
2023-01-19T07:30:05.743Z,98971.25
2023-01-19T07:40:27.263Z,98960.47
2023-01-19T07:50:51.426Z,98977.50
2023-01-19T08:01:13.951Z,98965.63
2023-01-19T08:11:35.601Z,98960.34
2023-01-19T08:21:58.915Z,98987.16
2023-01-19T08:32:20.421Z,99002.66
2023-01-19T08:42:41.956Z,98990.28
2023-01-19T08:53:06.797Z,99004.47
2023-01-19T09:03:28.377Z,99013.38
2023-01-19T09:13:49.813Z,99009.56
2023-01-19T09:24:11.128Z,98997.84
2023-01-19T09:34:32.569Z,98966.31
2023-01-19T09:44:54.488Z,98952.69
2023-01-19T09:55:26.589Z,98935.41
2023-01-19T10:06:02.701Z,98922.34
2023-01-19T10:16:40.021Z,98890.84
2023-01-19T10:27:02.027Z,98881.56
2023-01-19T10:37:37.745Z,98878.81
2023-01-19T10:48:06.513Z,98869.19
2023-01-19T11:24:14.822Z,98820.88
2023-01-19T11:34:39.216Z,98803.38
2023-01-19T11:45:14.826Z,98803.66
2023-01-19T11:55:52.721Z,98808.63
2023-01-19T12:06:32.865Z,98805.28
2023-01-19T12:17:00.296Z,98802.31
2023-01-19T12:27:42.841Z,98791.34
2023-01-19T12:38:32.420Z,98794.25
2023-01-19T12:48:53.874Z,98825.84
2023-01-19T12:59:27.048Z,98809.97
2023-01-19T18:02:01.536Z,98839.31
2023-01-19T18:12:26.276Z,98860.81
2023-01-19T18:22:47.717Z,98854.81
2023-01-19T18:33:08.771Z,98859.09
2023-01-19T18:43:30.644Z,98858.47
2023-01-19T18:53:52.289Z,98865.59
2023-01-19T19:04:13.837Z,98861.00
2023-01-19T19:14:35.307Z,98871.22
2023-01-19T19:24:56.676Z,98876.28
2023-01-19T19:35:20.362Z,98876.97
2023-01-19T19:45:41.623Z,98879.78
2023-01-19T19:56:05.057Z,98888.41
2023-01-19T20:06:27.880Z,98892.84
2023-01-19T20:16:49.624Z,98910.31
2023-01-19T20:27:10.805Z,98912.09
2023-01-19T20:37:32.698Z,98913.66
2023-01-19T20:47:54.380Z,98921.81
2023-01-19T20:58:15.719Z,98922.19
2023-01-19T21:08:37.709Z,98943.50
2023-01-19T21:18:59.720Z,98958.94
2023-01-19T21:29:20.992Z,98959.75
2023-01-19T21:39:42.425Z,98968.59
2023-01-19T21:50:04.423Z,98977.44
2023-01-19T22:00:27.275Z,98993.97
2023-01-19T22:10:49.174Z,98991.44
